sensor_id;sensor_type;location;lat;lon;timestamp;temperature;humidity
48535;DHT22;34323;52.022;5.686;2022-07-29T00:00:07;23.00;94.20
48535;DHT22;34323;52.022;5.686;2022-07-29T00:02:34;22.90;94.20
48535;DHT22;34323;52.022;5.686;2022-07-29T00:05:00;22.90;94.20
48535;DHT22;34323;52.022;5.686;2022-07-29T00:07:26;22.70;94.60
48535;DHT22;34323;52.022;5.686;2022-07-29T00:09:52;22.70;94.50
48535;DHT22;34323;52.022;5.686;2022-07-29T00:12:19;22.60;94.70
48535;DHT22;34323;52.022;5.686;2022-07-29T00:14:46;22.40;94.70
48535;DHT22;34323;52.022;5.686;2022-07-29T00:17:12;22.20;94.90
48535;DHT22;34323;52.022;5.686;2022-07-29T00:19:37;22.20;94.70
48535;DHT22;34323;52.022;5.686;2022-07-29T00:22:03;22.40;94.70
48535;DHT22;34323;52.022;5.686;2022-07-29T00:24:29;22.40;95.00
48535;DHT22;34323;52.022;5.686;2022-07-29T00:26:55;22.40;95.00
48535;DHT22;34323;52.022;5.686;2022-07-29T00:29:20;22.40;95.00
48535;DHT22;34323;52.022;5.686;2022-07-29T00:31:46;22.40;95.10
48535;DHT22;34323;52.022;5.686;2022-07-29T00:34:12;22.20;95.00
48535;DHT22;34323;52.022;5.686;2022-07-29T00:36:57;22.30;95.00
48535;DHT22;34323;52.022;5.686;2022-07-29T00:39:23;22.40;95.00
48535;DHT22;34323;52.022;5.686;2022-07-29T00:41:49;22.60;94.80
48535;DHT22;34323;52.022;5.686;2022-07-29T00:44:15;22.70;94.90
48535;DHT22;34323;52.022;5.686;2022-07-29T00:46:41;22.60;94.80
48535;DHT22;34323;52.022;5.686;2022-07-29T00:49:07;22.60;94.90
48535;DHT22;34323;52.022;5.686;2022-07-29T00:51:37;22.50;94.70
48535;DHT22;34323;52.022;5.686;2022-07-29T00:54:03;22.50;94.80
48535;DHT22;34323;52.022;5.686;2022-07-29T00:56:31;22.80;94.90
48535;DHT22;34323;52.022;5.686;2022-07-29T00:58:58;22.70;94.70
48535;DHT22;34323;52.022;5.686;2022-07-29T01:01:24;22.90;94.70
48535;DHT22;34323;52.022;5.686;2022-07-29T01:03:50;22.70;94.90
48535;DHT22;34323;52.022;5.686;2022-07-29T01:06:17;22.50;94.50
48535;DHT22;34323;52.022;5.686;2022-07-29T01:08:47;22.80;94.30
48535;DHT22;34323;52.022;5.686;2022-07-29T01:11:15;22.80;94.40
48535;DHT22;34323;52.022;5.686;2022-07-29T01:13:42;22.90;94.40
48535;DHT22;34323;52.022;5.686;2022-07-29T01:16:23;23.00;94.40
48535;DHT22;34323;52.022;5.686;2022-07-29T01:18:56;22.90;94.40
48535;DHT22;34323;52.022;5.686;2022-07-29T01:26:55;22.70;94.60
48535;DHT22;34323;52.022;5.686;2022-07-29T01:29:38;22.80;94.60
48535;DHT22;34323;52.022;5.686;2022-07-29T01:32:18;22.80;94.60
48535;DHT22;34323;52.022;5.686;2022-07-29T01:34:52;22.50;94.90
48535;DHT22;34323;52.022;5.686;2022-07-29T01:39:57;22.60;95.00
48535;DHT22;34323;52.022;5.686;2022-07-29T01:42:39;22.60;94.80
48535;DHT22;34323;52.022;5.686;2022-07-29T01:48:02;22.30;95.10
48535;DHT22;34323;52.022;5.686;2022-07-29T01:50:40;22.20;95.10
48535;DHT22;34323;52.022;5.686;2022-07-29T01:53:12;22.30;95.00
48535;DHT22;34323;52.022;5.686;2022-07-29T01:55:44;22.00;94.70
48535;DHT22;34323;52.022;5.686;2022-07-29T01:58:11;22.60;94.90
48535;DHT22;34323;52.022;5.686;2022-07-29T02:00:39;22.70;95.10
48535;DHT22;34323;52.022;5.686;2022-07-29T02:03:09;22.80;94.80
48535;DHT22;34323;52.022;5.686;2022-07-29T02:05:39;22.80;94.60
48535;DHT22;34323;52.022;5.686;2022-07-29T02:08:06;22.60;94.40
48535;DHT22;34323;52.022;5.686;2022-07-29T02:10:34;22.80;94.80
48535;DHT22;34323;52.022;5.686;2022-07-29T02:13:02;23.30;94.50
48535;DHT22;34323;52.022;5.686;2022-07-29T02:15:32;23.20;94.30
48535;DHT22;34323;52.022;5.686;2022-07-29T02:18:07;23.10;94.10
48535;DHT22;34323;52.022;5.686;2022-07-29T02:20:33;23.30;94.70
48535;DHT22;34323;52.022;5.686;2022-07-29T02:23:02;23.20;94.70
48535;DHT22;34323;52.022;5.686;2022-07-29T02:25:29;23.00;95.00
48535;DHT22;34323;52.022;5.686;2022-07-29T02:27:55;22.80;95.30
48535;DHT22;34323;52.022;5.686;2022-07-29T02:30:24;22.90;95.60
48535;DHT22;34323;52.022;5.686;2022-07-29T02:32:52;22.90;95.80
48535;DHT22;34323;52.022;5.686;2022-07-29T02:35:20;22.90;95.80
48535;DHT22;34323;52.022;5.686;2022-07-29T02:37:47;22.90;95.90
48535;DHT22;34323;52.022;5.686;2022-07-29T02:40:34;23.00;96.40
48535;DHT22;34323;52.022;5.686;2022-07-29T02:43:03;23.00;96.20
48535;DHT22;34323;52.022;5.686;2022-07-29T02:45:31;22.80;96.60
48535;DHT22;34323;52.022;5.686;2022-07-29T02:48:00;22.50;97.00
48535;DHT22;34323;52.022;5.686;2022-07-29T02:50:34;22.40;97.10
48535;DHT22;34323;52.022;5.686;2022-07-29T02:53:21;22.50;97.30
48535;DHT22;34323;52.022;5.686;2022-07-29T02:56:01;22.40;97.30
48535;DHT22;34323;52.022;5.686;2022-07-29T02:58:31;22.20;97.60
48535;DHT22;34323;52.022;5.686;2022-07-29T03:01:21;22.10;97.80
48535;DHT22;34323;52.022;5.686;2022-07-29T03:03:50;21.90;98.30
48535;DHT22;34323;52.022;5.686;2022-07-29T03:06:19;21.80;98.50
48535;DHT22;34323;52.022;5.686;2022-07-29T03:08:46;21.60;98.70
48535;DHT22;34323;52.022;5.686;2022-07-29T03:11:13;21.60;98.90
48535;DHT22;34323;52.022;5.686;2022-07-29T03:13:40;21.50;99.00
48535;DHT22;34323;52.022;5.686;2022-07-29T03:16:06;21.50;99.30
48535;DHT22;34323;52.022;5.686;2022-07-29T03:18:34;21.60;99.10
48535;DHT22;34323;52.022;5.686;2022-07-29T03:21:00;21.40;99.50
48535;DHT22;34323;52.022;5.686;2022-07-29T03:23:26;21.50;99.30
48535;DHT22;34323;52.022;5.686;2022-07-29T03:25:54;21.50;99.20
48535;DHT22;34323;52.022;5.686;2022-07-29T03:28:20;21.50;99.60
48535;DHT22;34323;52.022;5.686;2022-07-29T03:30:46;21.50;99.30
48535;DHT22;34323;52.022;5.686;2022-07-29T03:33:12;21.70;99.20
48535;DHT22;34323;52.022;5.686;2022-07-29T03:35:39;21.80;99.00
48535;DHT22;34323;52.022;5.686;2022-07-29T03:38:04;21.70;99.00
48535;DHT22;34323;52.022;5.686;2022-07-29T03:40:54;21.80;99.40
48535;DHT22;34323;52.022;5.686;2022-07-29T03:43:23;22.00;98.70
48535;DHT22;34323;52.022;5.686;2022-07-29T03:45:52;22.00;98.80
48535;DHT22;34323;52.022;5.686;2022-07-29T03:48:21;21.70;98.70
48535;DHT22;34323;52.022;5.686;2022-07-29T03:50:49;21.50;99.30
48535;DHT22;34323;52.022;5.686;2022-07-29T03:53:16;21.40;99.40
48535;DHT22;34323;52.022;5.686;2022-07-29T03:55:45;21.20;99.20
48535;DHT22;34323;52.022;5.686;2022-07-29T03:58:13;21.50;99.60
48535;DHT22;34323;52.022;5.686;2022-07-29T04:00:42;21.30;99.00
48535;DHT22;34323;52.022;5.686;2022-07-29T04:03:09;21.80;99.00
48535;DHT22;34323;52.022;5.686;2022-07-29T04:05:34;22.00;98.70
48535;DHT22;34323;52.022;5.686;2022-07-29T04:08:00;22.10;98.70
48535;DHT22;34323;52.022;5.686;2022-07-29T04:10:26;22.00;98.90
48535;DHT22;34323;52.022;5.686;2022-07-29T04:12:52;21.70;98.80
48535;DHT22;34323;52.022;5.686;2022-07-29T04:15:18;21.80;98.80
48535;DHT22;34323;52.022;5.686;2022-07-29T04:17:47;21.80;99.00
48535;DHT22;34323;52.022;5.686;2022-07-29T04:20:13;21.80;98.80
48535;DHT22;34323;52.022;5.686;2022-07-29T04:22:42;21.80;98.50
48535;DHT22;34323;52.022;5.686;2022-07-29T04:25:08;21.20;99.40
48535;DHT22;34323;52.022;5.686;2022-07-29T04:27:34;20.50;99.90
48535;DHT22;34323;52.022;5.686;2022-07-29T04:30:00;20.40;99.90
48535;DHT22;34323;52.022;5.686;2022-07-29T04:32:26;20.50;99.90
48535;DHT22;34323;52.022;5.686;2022-07-29T04:34:52;20.80;99.90
48535;DHT22;34323;52.022;5.686;2022-07-29T04:37:18;21.00;99.90
48535;DHT22;34323;52.022;5.686;2022-07-29T04:39:44;20.70;99.90
48535;DHT22;34323;52.022;5.686;2022-07-29T04:42:10;21.00;99.90
48535;DHT22;34323;52.022;5.686;2022-07-29T04:44:36;21.50;99.90
48535;DHT22;34323;52.022;5.686;2022-07-29T04:47:02;21.50;99.90
48535;DHT22;34323;52.022;5.686;2022-07-29T04:49:28;21.60;99.90
48535;DHT22;34323;52.022;5.686;2022-07-29T04:51:54;21.30;99.90
48535;DHT22;34323;52.022;5.686;2022-07-29T04:54:19;21.40;99.90
48535;DHT22;34323;52.022;5.686;2022-07-29T04:56:45;20.80;99.90
48535;DHT22;34323;52.022;5.686;2022-07-29T04:59:12;20.70;99.90
48535;DHT22;34323;52.022;5.686;2022-07-29T05:01:37;20.50;99.90
48535;DHT22;34323;52.022;5.686;2022-07-29T05:04:03;20.70;99.90
48535;DHT22;34323;52.022;5.686;2022-07-29T05:06:29;21.00;99.90
48535;DHT22;34323;52.022;5.686;2022-07-29T05:08:55;20.90;99.90
48535;DHT22;34323;52.022;5.686;2022-07-29T05:11:21;20.90;99.90
48535;DHT22;34323;52.022;5.686;2022-07-29T05:13:47;21.00;99.90
48535;DHT22;34323;52.022;5.686;2022-07-29T05:16:13;21.30;99.90
48535;DHT22;34323;52.022;5.686;2022-07-29T05:18:42;21.30;99.90
48535;DHT22;34323;52.022;5.686;2022-07-29T05:21:08;21.50;99.90
48535;DHT22;34323;52.022;5.686;2022-07-29T05:23:33;21.60;99.90
48535;DHT22;34323;52.022;5.686;2022-07-29T05:25:59;21.70;99.80
48535;DHT22;34323;52.022;5.686;2022-07-29T05:28:25;21.80;99.70
48535;DHT22;34323;52.022;5.686;2022-07-29T05:30:51;21.80;99.40
48535;DHT22;34323;52.022;5.686;2022-07-29T05:33:17;21.90;99.90
48535;DHT22;34323;52.022;5.686;2022-07-29T05:35:43;21.80;99.50
48535;DHT22;34323;52.022;5.686;2022-07-29T05:38:08;22.00;99.50
48535;DHT22;34323;52.022;5.686;2022-07-29T05:40:34;22.30;99.00
48535;DHT22;34323;52.022;5.686;2022-07-29T05:43:00;22.50;98.70
48535;DHT22;34323;52.022;5.686;2022-07-29T05:45:26;22.30;98.70
48535;DHT22;34323;52.022;5.686;2022-07-29T05:47:52;22.60;98.90
48535;DHT22;34323;52.022;5.686;2022-07-29T05:50:18;22.60;98.70
48535;DHT22;34323;52.022;5.686;2022-07-29T05:52:44;22.70;99.10
48535;DHT22;34323;52.022;5.686;2022-07-29T05:55:10;22.30;99.20
48535;DHT22;34323;52.022;5.686;2022-07-29T05:57:36;22.00;99.30
48535;DHT22;34323;52.022;5.686;2022-07-29T06:00:03;21.90;99.90
48535;DHT22;34323;52.022;5.686;2022-07-29T06:02:28;21.80;99.90
48535;DHT22;34323;52.022;5.686;2022-07-29T06:04:55;21.70;99.90
48535;DHT22;34323;52.022;5.686;2022-07-29T06:07:20;21.90;99.90
48535;DHT22;34323;52.022;5.686;2022-07-29T06:09:46;22.20;99.90
48535;DHT22;34323;52.022;5.686;2022-07-29T06:12:12;22.10;99.90
48535;DHT22;34323;52.022;5.686;2022-07-29T06:14:38;22.30;99.60
48535;DHT22;34323;52.022;5.686;2022-07-29T06:17:04;22.50;99.30
48535;DHT22;34323;52.022;5.686;2022-07-29T06:19:31;22.30;99.60
48535;DHT22;34323;52.022;5.686;2022-07-29T06:21:59;22.30;99.70
48535;DHT22;34323;52.022;5.686;2022-07-29T06:24:24;22.30;99.50
48535;DHT22;34323;52.022;5.686;2022-07-29T06:26:50;22.00;99.80
48535;DHT22;34323;52.022;5.686;2022-07-29T06:29:16;22.30;99.70
48535;DHT22;34323;52.022;5.686;2022-07-29T06:31:42;22.30;99.30
48535;DHT22;34323;52.022;5.686;2022-07-29T06:34:08;22.30;99.40
48535;DHT22;34323;52.022;5.686;2022-07-29T06:36:35;22.80;99.20
48535;DHT22;34323;52.022;5.686;2022-07-29T06:39:04;22.60;98.70
48535;DHT22;34323;52.022;5.686;2022-07-29T06:41:31;22.50;99.20
48535;DHT22;34323;52.022;5.686;2022-07-29T06:43:57;22.50;99.40
48535;DHT22;34323;52.022;5.686;2022-07-29T06:46:23;22.80;98.80
48535;DHT22;34323;52.022;5.686;2022-07-29T06:48:49;22.70;99.20
48535;DHT22;34323;52.022;5.686;2022-07-29T06:51:17;22.70;99.00
48535;DHT22;34323;52.022;5.686;2022-07-29T06:53:43;22.60;99.20
48535;DHT22;34323;52.022;5.686;2022-07-29T06:56:09;22.60;99.30
48535;DHT22;34323;52.022;5.686;2022-07-29T06:58:35;22.80;99.20
48535;DHT22;34323;52.022;5.686;2022-07-29T07:01:04;22.80;99.20
48535;DHT22;34323;52.022;5.686;2022-07-29T07:03:30;22.60;99.50
48535;DHT22;34323;52.022;5.686;2022-07-29T07:05:56;22.70;99.70
48535;DHT22;34323;52.022;5.686;2022-07-29T07:08:22;22.60;99.50
48535;DHT22;34323;52.022;5.686;2022-07-29T07:10:52;22.50;99.30
48535;DHT22;34323;52.022;5.686;2022-07-29T07:13:18;22.80;99.10
48535;DHT22;34323;52.022;5.686;2022-07-29T07:15:45;22.90;99.00
48535;DHT22;34323;52.022;5.686;2022-07-29T07:18:14;22.80;98.90
48535;DHT22;34323;52.022;5.686;2022-07-29T07:20:40;23.00;98.80
48535;DHT22;34323;52.022;5.686;2022-07-29T07:23:06;22.90;98.80
48535;DHT22;34323;52.022;5.686;2022-07-29T07:25:32;23.00;98.70
48535;DHT22;34323;52.022;5.686;2022-07-29T07:27:58;22.90;98.70
48535;DHT22;34323;52.022;5.686;2022-07-29T07:30:24;22.80;99.20
48535;DHT22;34323;52.022;5.686;2022-07-29T07:32:50;22.80;99.30
48535;DHT22;34323;52.022;5.686;2022-07-29T07:35:16;23.00;99.00
48535;DHT22;34323;52.022;5.686;2022-07-29T07:37:42;23.20;98.70
48535;DHT22;34323;52.022;5.686;2022-07-29T07:40:09;23.10;98.80
48535;DHT22;34323;52.022;5.686;2022-07-29T07:42:37;22.90;98.60
48535;DHT22;34323;52.022;5.686;2022-07-29T07:45:03;23.20;98.70
48535;DHT22;34323;52.022;5.686;2022-07-29T07:47:31;23.10;99.10
48535;DHT22;34323;52.022;5.686;2022-07-29T07:49:57;23.20;99.00
48535;DHT22;34323;52.022;5.686;2022-07-29T07:52:23;22.80;98.90
48535;DHT22;34323;52.022;5.686;2022-07-29T07:54:49;23.10;98.80
48535;DHT22;34323;52.022;5.686;2022-07-29T07:57:16;23.50;98.90
48535;DHT22;34323;52.022;5.686;2022-07-29T07:59:42;23.60;98.60
48535;DHT22;34323;52.022;5.686;2022-07-29T08:02:08;23.60;98.40
48535;DHT22;34323;52.022;5.686;2022-07-29T08:04:34;23.50;98.10
48535;DHT22;34323;52.022;5.686;2022-07-29T08:07:01;23.60;98.50
48535;DHT22;34323;52.022;5.686;2022-07-29T08:09:30;23.60;98.40
48535;DHT22;34323;52.022;5.686;2022-07-29T08:11:57;24.10;98.00
48535;DHT22;34323;52.022;5.686;2022-07-29T08:14:24;24.20;97.80
48535;DHT22;34323;52.022;5.686;2022-07-29T08:16:50;24.30;97.60
48535;DHT22;34323;52.022;5.686;2022-07-29T08:19:17;24.20;97.50
48535;DHT22;34323;52.022;5.686;2022-07-29T08:21:42;24.40;97.50
48535;DHT22;34323;52.022;5.686;2022-07-29T08:24:08;24.60;97.50
48535;DHT22;34323;52.022;5.686;2022-07-29T08:26:53;24.30;97.60
48535;DHT22;34323;52.022;5.686;2022-07-29T08:29:18;24.50;97.50
48535;DHT22;34323;52.022;5.686;2022-07-29T08:31:44;24.80;97.30
48535;DHT22;34323;52.022;5.686;2022-07-29T08:34:11;24.30;97.60
48535;DHT22;34323;52.022;5.686;2022-07-29T08:36:37;24.30;98.20
48535;DHT22;34323;52.022;5.686;2022-07-29T08:39:04;24.60;97.80
48535;DHT22;34323;52.022;5.686;2022-07-29T08:41:30;24.70;98.00
48535;DHT22;34323;52.022;5.686;2022-07-29T08:43:56;24.90;98.30
48535;DHT22;34323;52.022;5.686;2022-07-29T08:46:22;24.80;98.20
48535;DHT22;34323;52.022;5.686;2022-07-29T08:48:49;24.60;98.80
48535;DHT22;34323;52.022;5.686;2022-07-29T08:51:19;24.60;98.90
48535;DHT22;34323;52.022;5.686;2022-07-29T08:53:47;24.50;98.70
48535;DHT22;34323;52.022;5.686;2022-07-29T08:56:15;24.50;98.30
48535;DHT22;34323;52.022;5.686;2022-07-29T08:58:47;25.30;97.50
48535;DHT22;34323;52.022;5.686;2022-07-29T09:01:20;25.60;97.50
48535;DHT22;34323;52.022;5.686;2022-07-29T09:03:47;26.00;96.50
48535;DHT22;34323;52.022;5.686;2022-07-29T09:06:15;25.80;96.10
48535;DHT22;34323;52.022;5.686;2022-07-29T09:08:42;25.60;96.50
48535;DHT22;34323;52.022;5.686;2022-07-29T09:11:09;25.60;96.40
48535;DHT22;34323;52.022;5.686;2022-07-29T09:13:37;25.70;97.40
48535;DHT22;34323;52.022;5.686;2022-07-29T09:16:03;25.80;97.20
48535;DHT22;34323;52.022;5.686;2022-07-29T09:18:43;25.80;97.20
48535;DHT22;34323;52.022;5.686;2022-07-29T09:21:11;25.70;97.70
48535;DHT22;34323;52.022;5.686;2022-07-29T09:24:01;25.70;98.00
48535;DHT22;34323;52.022;5.686;2022-07-29T09:26:32;25.40;98.00
48535;DHT22;34323;52.022;5.686;2022-07-29T09:28:58;25.40;98.20
48535;DHT22;34323;52.022;5.686;2022-07-29T09:31:36;25.80;97.20
48535;DHT22;34323;52.022;5.686;2022-07-29T09:34:04;26.40;97.10
48535;DHT22;34323;52.022;5.686;2022-07-29T09:36:30;26.50;97.30
48535;DHT22;34323;52.022;5.686;2022-07-29T09:39:02;26.30;96.00
48535;DHT22;34323;52.022;5.686;2022-07-29T09:41:29;26.30;96.90
48535;DHT22;34323;52.022;5.686;2022-07-29T09:43:59;26.40;97.20
48535;DHT22;34323;52.022;5.686;2022-07-29T09:46:25;26.10;95.30
48535;DHT22;34323;52.022;5.686;2022-07-29T09:49:11;25.90;96.10
48535;DHT22;34323;52.022;5.686;2022-07-29T09:51:38;25.90;96.50
48535;DHT22;34323;52.022;5.686;2022-07-29T09:54:23;26.00;96.40
48535;DHT22;34323;52.022;5.686;2022-07-29T09:56:50;26.00;96.80
48535;DHT22;34323;52.022;5.686;2022-07-29T09:59:15;26.30;95.50
48535;DHT22;34323;52.022;5.686;2022-07-29T10:01:41;26.40;95.60
48535;DHT22;34323;52.022;5.686;2022-07-29T10:04:07;26.70;96.30
48535;DHT22;34323;52.022;5.686;2022-07-29T10:06:33;26.90;96.10
48535;DHT22;34323;52.022;5.686;2022-07-29T10:09:10;26.90;96.10
48535;DHT22;34323;52.022;5.686;2022-07-29T10:11:36;26.90;95.90
48535;DHT22;34323;52.022;5.686;2022-07-29T10:14:03;26.70;95.10
48535;DHT22;34323;52.022;5.686;2022-07-29T10:16:29;26.70;95.20
48535;DHT22;34323;52.022;5.686;2022-07-29T10:19:01;27.10;95.50
48535;DHT22;34323;52.022;5.686;2022-07-29T10:21:27;27.20;96.80
48535;DHT22;34323;52.022;5.686;2022-07-29T10:23:54;27.30;95.60
48535;DHT22;34323;52.022;5.686;2022-07-29T10:26:20;27.40;96.00
48535;DHT22;34323;52.022;5.686;2022-07-29T10:28:46;27.50;96.70
48535;DHT22;34323;52.022;5.686;2022-07-29T10:31:44;27.90;95.70
48535;DHT22;34323;52.022;5.686;2022-07-29T10:34:50;28.30;95.90
48535;DHT22;34323;52.022;5.686;2022-07-29T10:44:03;28.70;93.80
48535;DHT22;34323;52.022;5.686;2022-07-29T10:46:38;28.50;94.40
48535;DHT22;34323;52.022;5.686;2022-07-29T10:57:21;29.20;93.80
48535;DHT22;34323;52.022;5.686;2022-07-29T10:59:48;29.30;93.60
48535;DHT22;34323;52.022;5.686;2022-07-29T11:05:06;29.90;93.60
48535;DHT22;34323;52.022;5.686;2022-07-29T11:07:34;30.30;94.10
48535;DHT22;34323;52.022;5.686;2022-07-29T11:15:05;30.90;93.00
48535;DHT22;34323;52.022;5.686;2022-07-29T11:29:02;31.20;93.10
48535;DHT22;34323;52.022;5.686;2022-07-29T11:31:40;31.20;92.60
48535;DHT22;34323;52.022;5.686;2022-07-29T11:39:46;31.30;93.00
48535;DHT22;34323;52.022;5.686;2022-07-29T11:47:21;31.30;92.10
48535;DHT22;34323;52.022;5.686;2022-07-29T11:49:48;31.40;92.30
48535;DHT22;34323;52.022;5.686;2022-07-29T11:52:17;31.80;92.30
48535;DHT22;34323;52.022;5.686;2022-07-29T11:54:43;32.20;93.10
48535;DHT22;34323;52.022;5.686;2022-07-29T11:57:09;32.10;91.80
48535;DHT22;34323;52.022;5.686;2022-07-29T11:59:40;32.40;92.70
48535;DHT22;34323;52.022;5.686;2022-07-29T12:02:07;32.50;92.40
48535;DHT22;34323;52.022;5.686;2022-07-29T12:04:53;32.50;92.30
48535;DHT22;34323;52.022;5.686;2022-07-29T12:07:29;32.60;92.70
48535;DHT22;34323;52.022;5.686;2022-07-29T12:09:55;32.50;92.00
48535;DHT22;34323;52.022;5.686;2022-07-29T12:12:21;32.30;91.60
48535;DHT22;34323;52.022;5.686;2022-07-29T12:14:48;32.60;91.80
48535;DHT22;34323;52.022;5.686;2022-07-29T12:17:29;32.30;91.80
48535;DHT22;34323;52.022;5.686;2022-07-29T12:19:56;32.10;93.10
48535;DHT22;34323;52.022;5.686;2022-07-29T12:22:41;32.10;92.40
48535;DHT22;34323;52.022;5.686;2022-07-29T12:25:11;32.40;92.30
48535;DHT22;34323;52.022;5.686;2022-07-29T12:27:40;32.60;91.30
48535;DHT22;34323;52.022;5.686;2022-07-29T12:30:09;33.00;92.00
48535;DHT22;34323;52.022;5.686;2022-07-29T12:32:48;33.20;90.80
48535;DHT22;34323;52.022;5.686;2022-07-29T12:35:14;33.00;91.60
48535;DHT22;34323;52.022;5.686;2022-07-29T12:37:42;33.10;91.90
48535;DHT22;34323;52.022;5.686;2022-07-29T12:40:11;33.40;92.30
48535;DHT22;34323;52.022;5.686;2022-07-29T12:42:37;33.40;90.00
48535;DHT22;34323;52.022;5.686;2022-07-29T12:45:04;33.70;91.40
48535;DHT22;34323;52.022;5.686;2022-07-29T12:47:30;33.60;90.30
48535;DHT22;34323;52.022;5.686;2022-07-29T12:52:35;34.10;90.80
48535;DHT22;34323;52.022;5.686;2022-07-29T12:55:01;34.00;90.70
48535;DHT22;34323;52.022;5.686;2022-07-29T12:57:28;34.00;90.60
48535;DHT22;34323;52.022;5.686;2022-07-29T13:00:11;34.10;90.40
48535;DHT22;34323;52.022;5.686;2022-07-29T13:02:40;33.70;90.60
48535;DHT22;34323;52.022;5.686;2022-07-29T13:05:08;33.40;90.60
48535;DHT22;34323;52.022;5.686;2022-07-29T13:07:35;33.30;91.20
48535;DHT22;34323;52.022;5.686;2022-07-29T13:10:18;33.90;91.00
48535;DHT22;34323;52.022;5.686;2022-07-29T13:15:29;34.40;90.20
48535;DHT22;34323;52.022;5.686;2022-07-29T13:17:55;34.40;89.30
48535;DHT22;34323;52.022;5.686;2022-07-29T13:20:24;34.00;90.40
48535;DHT22;34323;52.022;5.686;2022-07-29T13:22:51;34.10;90.80
48535;DHT22;34323;52.022;5.686;2022-07-29T13:25:24;33.80;90.50
48535;DHT22;34323;52.022;5.686;2022-07-29T13:27:51;33.30;90.70
48535;DHT22;34323;52.022;5.686;2022-07-29T13:30:19;32.60;90.80
48535;DHT22;34323;52.022;5.686;2022-07-29T13:32:45;33.00;91.40
48535;DHT22;34323;52.022;5.686;2022-07-29T13:35:12;33.60;91.60
48535;DHT22;34323;52.022;5.686;2022-07-29T13:37:39;34.30;90.50
48535;DHT22;34323;52.022;5.686;2022-07-29T13:40:06;34.90;90.90
48535;DHT22;34323;52.022;5.686;2022-07-29T13:42:32;36.10;91.10
48535;DHT22;34323;52.022;5.686;2022-07-29T13:44:59;36.80;90.20
48535;DHT22;34323;52.022;5.686;2022-07-29T13:47:25;37.40;90.30
48535;DHT22;34323;52.022;5.686;2022-07-29T13:49:51;38.00;90.10
48535;DHT22;34323;52.022;5.686;2022-07-29T13:52:19;37.50;88.20
48535;DHT22;34323;52.022;5.686;2022-07-29T13:54:45;37.80;90.30
48535;DHT22;34323;52.022;5.686;2022-07-29T13:57:11;38.60;88.40
48535;DHT22;34323;52.022;5.686;2022-07-29T13:59:39;38.80;87.10
48535;DHT22;34323;52.022;5.686;2022-07-29T14:02:05;38.40;88.20
48535;DHT22;34323;52.022;5.686;2022-07-29T14:04:31;37.80;87.00
48535;DHT22;34323;52.022;5.686;2022-07-29T14:06:57;36.80;88.90
48535;DHT22;34323;52.022;5.686;2022-07-29T14:09:23;36.00;89.00
48535;DHT22;34323;52.022;5.686;2022-07-29T14:11:49;35.40;89.10
48535;DHT22;34323;52.022;5.686;2022-07-29T14:14:17;36.10;88.50
48535;DHT22;34323;52.022;5.686;2022-07-29T14:16:43;35.50;89.20
48535;DHT22;34323;52.022;5.686;2022-07-29T14:19:08;35.80;90.20
48535;DHT22;34323;52.022;5.686;2022-07-29T14:21:34;36.70;90.70
48535;DHT22;34323;52.022;5.686;2022-07-29T14:24:00;37.70;89.10
48535;DHT22;34323;52.022;5.686;2022-07-29T14:26:26;39.30;87.60
48535;DHT22;34323;52.022;5.686;2022-07-29T14:28:52;40.50;86.40
48535;DHT22;34323;52.022;5.686;2022-07-29T14:31:18;41.10;86.30
48535;DHT22;34323;52.022;5.686;2022-07-29T14:33:43;41.80;86.20
48535;DHT22;34323;52.022;5.686;2022-07-29T14:36:09;42.40;84.00
48535;DHT22;34323;52.022;5.686;2022-07-29T14:38:36;42.50;82.80
48535;DHT22;34323;52.022;5.686;2022-07-29T14:41:03;42.60;83.30
48535;DHT22;34323;52.022;5.686;2022-07-29T14:43:29;43.30;83.20
48535;DHT22;34323;52.022;5.686;2022-07-29T14:45:55;43.50;82.60
48535;DHT22;34323;52.022;5.686;2022-07-29T14:48:21;43.80;81.60
48535;DHT22;34323;52.022;5.686;2022-07-29T14:50:47;43.80;80.20
48535;DHT22;34323;52.022;5.686;2022-07-29T14:53:13;43.90;80.70
48535;DHT22;34323;52.022;5.686;2022-07-29T14:55:40;43.40;80.30
48535;DHT22;34323;52.022;5.686;2022-07-29T14:58:07;43.30;80.80
48535;DHT22;34323;52.022;5.686;2022-07-29T15:00:33;43.40;81.30
48535;DHT22;34323;52.022;5.686;2022-07-29T15:03:00;43.20;81.70
48535;DHT22;34323;52.022;5.686;2022-07-29T15:05:26;42.60;80.60
48535;DHT22;34323;52.022;5.686;2022-07-29T15:07:52;41.50;82.20
48535;DHT22;34323;52.022;5.686;2022-07-29T15:10:19;41.40;80.00
48535;DHT22;34323;52.022;5.686;2022-07-29T15:12:45;41.80;80.30
48535;DHT22;34323;52.022;5.686;2022-07-29T15:15:10;42.20;81.40
48535;DHT22;34323;52.022;5.686;2022-07-29T15:17:36;42.60;79.60
48535;DHT22;34323;52.022;5.686;2022-07-29T15:20:03;42.70;79.20
48535;DHT22;34323;52.022;5.686;2022-07-29T15:22:29;42.70;79.80
48535;DHT22;34323;52.022;5.686;2022-07-29T15:24:55;43.10;80.50
48535;DHT22;34323;52.022;5.686;2022-07-29T15:27:21;43.50;78.40
48535;DHT22;34323;52.022;5.686;2022-07-29T15:29:47;44.00;79.60
48535;DHT22;34323;52.022;5.686;2022-07-29T15:32:12;44.00;77.60
48535;DHT22;34323;52.022;5.686;2022-07-29T15:34:39;43.90;77.30
48535;DHT22;34323;52.022;5.686;2022-07-29T15:37:05;42.90;78.20
48535;DHT22;34323;52.022;5.686;2022-07-29T15:39:31;42.70;78.10
48535;DHT22;34323;52.022;5.686;2022-07-29T15:41:57;42.70;78.10
48535;DHT22;34323;52.022;5.686;2022-07-29T15:44:25;42.00;77.00
48535;DHT22;34323;52.022;5.686;2022-07-29T15:46:51;41.00;77.90
48535;DHT22;34323;52.022;5.686;2022-07-29T15:49:30;40.50;78.20
48535;DHT22;34323;52.022;5.686;2022-07-29T15:52:00;40.00;78.10
48535;DHT22;34323;52.022;5.686;2022-07-29T15:54:27;39.30;78.30
48535;DHT22;34323;52.022;5.686;2022-07-29T15:56:53;38.70;79.20
48535;DHT22;34323;52.022;5.686;2022-07-29T15:59:20;38.40;80.20
48535;DHT22;34323;52.022;5.686;2022-07-29T16:01:46;37.90;78.50
48535;DHT22;34323;52.022;5.686;2022-07-29T16:04:12;37.80;79.50
48535;DHT22;34323;52.022;5.686;2022-07-29T16:06:38;37.90;79.80
48535;DHT22;34323;52.022;5.686;2022-07-29T16:09:04;37.00;80.70
48535;DHT22;34323;52.022;5.686;2022-07-29T16:11:30;36.50;81.00
48535;DHT22;34323;52.022;5.686;2022-07-29T16:13:56;35.60;81.60
48535;DHT22;34323;52.022;5.686;2022-07-29T16:16:22;35.20;82.30
48535;DHT22;34323;52.022;5.686;2022-07-29T16:18:47;35.10;83.40
48535;DHT22;34323;52.022;5.686;2022-07-29T16:21:13;34.90;83.30
48535;DHT22;34323;52.022;5.686;2022-07-29T16:23:39;34.60;83.80
48535;DHT22;34323;52.022;5.686;2022-07-29T16:26:06;34.50;83.30
48535;DHT22;34323;52.022;5.686;2022-07-29T16:28:32;34.10;83.80
48535;DHT22;34323;52.022;5.686;2022-07-29T16:30:58;33.70;85.30
48535;DHT22;34323;52.022;5.686;2022-07-29T16:33:24;33.20;85.90
48535;DHT22;34323;52.022;5.686;2022-07-29T16:35:51;32.90;85.60